createdAt,value
2022-09-04T00:02:19.079Z,100.00
2022-09-04T00:05:35.964Z,100.00
2022-09-04T00:08:46.409Z,100.00
2022-09-04T00:12:15.160Z,100.00
2022-09-04T00:15:27.521Z,100.00
2022-09-04T00:18:35.506Z,100.00
2022-09-04T00:21:38.944Z,100.00
2022-09-04T00:24:41.806Z,100.00
2022-09-04T00:27:45.229Z,100.00
2022-09-04T00:30:50.402Z,100.00
2022-09-04T00:34:10.937Z,100.00
2022-09-04T00:37:16.635Z,100.00
2022-09-04T00:40:21.690Z,100.00
2022-09-04T00:43:29.441Z,100.00
2022-09-04T00:46:34.045Z,100.00
2022-09-04T00:49:40.333Z,100.00
2022-09-04T00:52:58.188Z,100.00
2022-09-04T00:56:38.642Z,100.00
2022-09-04T00:59:51.663Z,100.00
2022-09-04T01:02:54.191Z,100.00
2022-09-04T01:06:09.923Z,100.00
2022-09-04T01:09:14.622Z,100.00
2022-09-04T01:12:16.694Z,100.00
2022-09-04T01:15:26.426Z,100.00
2022-09-04T01:18:46.461Z,100.00
2022-09-04T01:21:51.044Z,100.00
2022-09-04T01:24:55.161Z,100.00
2022-09-04T01:28:00.004Z,100.00
2022-09-04T01:31:05.132Z,100.00
2022-09-04T01:34:13.337Z,100.00
2022-09-04T01:37:21.045Z,100.00
2022-09-04T01:40:36.153Z,100.00
2022-09-04T01:43:37.880Z,100.00
2022-09-04T01:46:45.609Z,100.00
2022-09-04T01:49:49.693Z,100.00
2022-09-04T01:52:51.279Z,100.00
2022-09-04T01:55:58.567Z,100.00
2022-09-04T01:59:06.373Z,100.00
2022-09-04T02:02:11.933Z,100.00
2022-09-04T02:05:31.025Z,100.00
2022-09-04T02:08:38.774Z,100.00
2022-09-04T02:11:41.147Z,100.00
2022-09-04T02:14:54.370Z,100.00
2022-09-04T02:18:20.177Z,100.00
2022-09-04T02:21:31.636Z,100.00
2022-09-04T02:24:48.511Z,100.00
2022-09-04T02:27:56.289Z,100.00
2022-09-04T02:31:16.186Z,100.00
2022-09-04T02:34:32.855Z,100.00
2022-09-04T02:37:40.301Z,100.00
2022-09-04T02:40:46.610Z,100.00
2022-09-04T02:44:08.556Z,100.00
2022-09-04T02:47:19.662Z,100.00
2022-09-04T02:50:26.426Z,100.00
2022-09-04T02:53:31.137Z,100.00
2022-09-04T02:56:52.177Z,100.00
2022-09-04T03:00:21.554Z,100.00
2022-09-04T03:03:27.927Z,100.00
2022-09-04T03:06:43.740Z,100.00
2022-09-04T03:09:55.906Z,100.00
2022-09-04T03:12:57.522Z,100.00
2022-09-04T03:16:22.267Z,100.00
2022-09-04T03:19:47.235Z,100.00
2022-09-04T03:23:04.728Z,100.00
2022-09-04T03:26:12.504Z,100.00
2022-09-04T03:29:16.849Z,100.00
2022-09-04T03:32:25.319Z,100.00
2022-09-04T03:35:32.956Z,100.00
2022-09-04T03:38:37.464Z,100.00
2022-09-04T03:41:45.822Z,100.00
2022-09-04T03:45:06.091Z,100.00
2022-09-04T03:48:26.768Z,100.00
2022-09-04T03:51:39.924Z,100.00
2022-09-04T03:55:00.219Z,100.00
2022-09-04T03:58:11.095Z,100.00
2022-09-04T04:01:13.742Z,100.00
2022-09-04T04:04:35.839Z,100.00
2022-09-04T04:07:37.409Z,100.00
2022-09-04T04:10:57.809Z,100.00
2022-09-04T04:14:14.582Z,100.00
2022-09-04T04:17:39.454Z,100.00
2022-09-04T04:20:44.552Z,100.00
2022-09-04T04:23:49.201Z,100.00
2022-09-04T04:26:56.730Z,100.00
2022-09-04T04:30:04.544Z,100.00
2022-09-04T04:33:15.821Z,100.00
2022-09-04T04:36:35.866Z,100.00
2022-09-04T04:39:39.887Z,100.00
2022-09-04T04:42:41.474Z,100.00
2022-09-04T04:45:51.795Z,100.00
2022-09-04T04:48:53.345Z,100.00
2022-09-04T04:52:15.884Z,100.00
2022-09-04T04:55:31.072Z,100.00
2022-09-04T04:58:53.953Z,100.00
2022-09-04T05:02:11.983Z,100.00
2022-09-04T05:05:16.363Z,100.00
2022-09-04T05:08:30.085Z,100.00
2022-09-04T05:11:37.831Z,100.00
2022-09-04T05:14:47.476Z,100.00
2022-09-04T05:17:49.034Z,100.00
2022-09-04T05:20:58.789Z,100.00
2022-09-04T05:24:02.836Z,100.00
2022-09-04T05:27:09.058Z,100.00
2022-09-04T05:30:12.232Z,100.00
2022-09-04T05:33:23.518Z,100.00
2022-09-04T05:36:36.668Z,100.00
2022-09-04T05:39:41.550Z,100.00
2022-09-04T05:43:04.083Z,100.00
2022-09-04T05:46:19.953Z,100.00
2022-09-04T05:49:42.694Z,100.00
2022-09-04T05:52:50.478Z,100.00
2022-09-04T05:55:54.822Z,100.00
2022-09-04T05:58:59.240Z,100.00
2022-09-04T06:02:19.700Z,100.00
2022-09-04T06:05:40.618Z,99.85
2022-09-04T06:08:47.646Z,99.09
2022-09-04T06:11:52.345Z,98.30
2022-09-04T06:14:57.630Z,97.72
2022-09-04T06:18:02.107Z,97.50
2022-09-04T06:21:22.016Z,97.06
2022-09-04T06:24:33.014Z,97.12
2022-09-04T06:27:41.925Z,96.70
2022-09-04T06:30:49.741Z,96.28
2022-09-04T06:34:00.397Z,95.81
2022-09-04T06:37:17.226Z,96.69
2022-09-04T06:40:25.761Z,96.50
2022-09-04T06:43:33.230Z,96.48
2022-09-04T06:46:34.876Z,95.87
2022-09-04T06:49:48.785Z,95.53
2022-09-04T06:52:55.942Z,95.80
2022-09-04T06:56:18.399Z,95.90
2022-09-04T06:59:39.326Z,96.04
2022-09-04T07:03:07.019Z,96.36
2022-09-04T07:06:27.320Z,96.74
2022-09-04T07:09:30.935Z,96.63
2022-09-04T07:12:48.529Z,96.73
2022-09-04T07:16:09.903Z,96.65
2022-09-04T07:19:14.587Z,95.97
2022-09-04T07:22:23.050Z,95.77
2022-09-04T07:25:33.052Z,95.53
2022-09-04T07:28:49.982Z,96.28
2022-09-04T07:31:59.750Z,96.20
2022-09-04T07:35:04.337Z,96.04
2022-09-04T07:38:18.677Z,95.87
2022-09-04T07:41:59.634Z,96.10
2022-09-04T07:45:07.231Z,95.78
2022-09-04T07:48:30.464Z,95.48
2022-09-04T07:51:33.420Z,95.65
2022-09-04T07:54:41.159Z,95.89
2022-09-04T07:57:55.058Z,95.74
2022-09-04T08:01:11.774Z,96.35
2022-09-04T08:04:22.416Z,96.08
2022-09-04T08:07:38.968Z,96.03
2022-09-04T08:10:40.561Z,96.21
2022-09-04T08:13:51.261Z,96.07
2022-09-04T08:17:11.598Z,96.09
2022-09-04T08:20:13.125Z,95.11
2022-09-04T08:23:17.859Z,95.31
2022-09-04T08:26:32.793Z,96.14
2022-09-04T08:30:04.260Z,96.38
2022-09-04T08:33:10.503Z,95.84
2022-09-04T08:36:12.052Z,95.90
2022-09-04T08:39:21.003Z,95.99
2022-09-04T08:42:40.890Z,95.89
2022-09-04T08:46:02.057Z,95.11
2022-09-04T08:49:07.629Z,95.75
2022-09-04T08:52:09.733Z,95.46
2022-09-04T08:55:23.759Z,95.73
2022-09-04T08:58:48.102Z,95.66
2022-09-04T09:01:52.989Z,95.84
2022-09-04T09:05:18.793Z,96.05
2022-09-04T09:08:29.694Z,96.15
2022-09-04T09:11:36.819Z,95.60
2022-09-04T09:14:59.580Z,95.23
2022-09-04T09:18:17.720Z,94.42
2022-09-04T09:21:28.582Z,94.73
2022-09-04T09:24:30.491Z,93.71
2022-09-04T09:27:48.289Z,93.20
2022-09-04T09:31:08.776Z,92.45
2022-09-04T09:34:29.110Z,92.39
2022-09-04T09:37:31.098Z,92.21
2022-09-04T09:40:36.955Z,91.35
2022-09-04T09:43:59.708Z,90.83
2022-09-04T09:47:01.927Z,90.20
2022-09-04T09:50:11.929Z,90.61
2022-09-04T09:53:13.533Z,90.76
2022-09-04T09:56:34.081Z,90.26
2022-09-04T09:59:54.194Z,89.66
2022-09-04T10:02:55.811Z,89.37
2022-09-04T10:06:16.297Z,89.57
2022-09-04T10:09:30.185Z,87.80
2022-09-04T10:12:37.821Z,86.86
2022-09-04T10:15:50.624Z,88.13
2022-09-04T10:19:04.817Z,86.42
2022-09-04T10:22:12.614Z,86.96
2022-09-04T10:25:37.673Z,85.60
2022-09-04T10:28:51.630Z,86.60
2022-09-04T10:31:56.959Z,86.32
2022-09-04T10:35:10.887Z,86.01
2022-09-04T10:38:15.535Z,84.73
2022-09-04T10:41:23.488Z,86.25
2022-09-04T10:44:30.543Z,85.24
2022-09-04T10:47:55.693Z,84.27
2022-09-04T10:51:00.657Z,83.21
2022-09-04T10:54:07.895Z,83.94
2022-09-04T10:57:28.358Z,82.68
2022-09-04T11:00:35.424Z,81.95
2022-09-04T11:03:41.708Z,81.47
2022-09-04T11:07:02.955Z,81.70
2022-09-04T11:10:10.687Z,80.29
2022-09-04T11:13:31.070Z,79.63
2022-09-04T11:16:35.728Z,79.90
2022-09-04T11:19:56.694Z,79.04
2022-09-04T11:23:20.899Z,76.93
2022-09-04T11:26:36.333Z,76.22
2022-09-04T11:29:59.339Z,76.35
2022-09-04T11:33:00.891Z,76.74
2022-09-04T11:36:05.858Z,76.01
2022-09-04T11:39:16.509Z,76.50
2022-09-04T11:42:23.032Z,75.83
2022-09-04T11:45:27.055Z,74.89
2022-09-04T11:48:47.569Z,75.15
2022-09-04T11:52:00.496Z,74.86
2022-09-04T11:55:06.666Z,75.17
2022-09-04T11:58:28.261Z,74.76
2022-09-04T12:02:02.451Z,74.27
2022-09-04T12:05:06.910Z,74.05
2022-09-04T12:08:20.491Z,74.67
2022-09-04T12:11:40.653Z,75.79
2022-09-04T12:14:44.943Z,75.81
2022-09-04T12:18:12.808Z,75.80
2022-09-04T12:21:35.888Z,76.15
2022-09-04T12:24:49.589Z,76.48
2022-09-04T12:28:00.280Z,78.09
2022-09-04T12:31:13.798Z,78.00
2022-09-04T12:34:18.505Z,78.47
2022-09-04T12:37:27.553Z,78.21
2022-09-04T12:40:29.377Z,78.80
2022-09-04T12:43:43.263Z,78.40
2022-09-04T12:47:03.550Z,78.49
2022-09-04T12:50:28.145Z,78.46
2022-09-04T12:53:34.189Z,78.43
2022-09-04T12:56:49.075Z,78.66
2022-09-04T12:59:52.406Z,78.97
2022-09-04T13:02:57.413Z,78.84
2022-09-04T13:06:15.373Z,79.27
2022-09-04T13:09:19.193Z,78.74
2022-09-04T13:12:24.086Z,78.12
2022-09-04T13:15:41.058Z,77.61
2022-09-04T13:18:49.334Z,77.06
2022-09-04T13:21:55.666Z,76.81
2022-09-04T13:25:09.446Z,75.61
2022-09-04T13:28:17.080Z,75.35
2022-09-04T13:31:18.889Z,75.69
2022-09-04T13:34:34.194Z,75.23
2022-09-04T13:37:59.172Z,74.97
2022-09-04T13:41:19.969Z,75.79
2022-09-04T13:44:21.549Z,75.32
2022-09-04T13:47:32.145Z,75.48
2022-09-04T13:50:38.135Z,75.07
2022-09-04T13:53:52.174Z,74.88
2022-09-04T13:57:02.952Z,75.53
2022-09-04T14:00:05.579Z,74.43
2022-09-04T14:03:07.593Z,73.57
2022-09-04T14:06:10.202Z,73.87
2022-09-04T14:09:11.773Z,74.14
2022-09-04T14:12:20.017Z,74.82
2022-09-04T14:15:24.818Z,75.67
2022-09-04T14:18:29.541Z,74.54
2022-09-04T14:21:31.168Z,74.97
2022-09-04T14:24:51.811Z,74.13
2022-09-04T14:28:22.869Z,73.64
2022-09-04T14:31:25.020Z,73.87
2022-09-04T14:34:27.759Z,73.49
2022-09-04T14:37:36.103Z,74.14
2022-09-04T14:40:38.821Z,72.52
2022-09-04T14:44:03.825Z,72.88
2022-09-04T14:47:16.661Z,72.41
2022-09-04T14:50:18.325Z,72.85
2022-09-04T14:53:26.291Z,72.46
2022-09-04T14:56:31.366Z,72.80
2022-09-04T14:59:33.041Z,73.25
2022-09-04T15:02:45.926Z,72.69
2022-09-04T15:05:58.507Z,72.43
2022-09-04T15:09:15.756Z,71.68
2022-09-04T15:12:26.201Z,70.55
2022-09-04T15:15:31.791Z,68.47
2022-09-04T15:18:37.213Z,67.87
2022-09-04T15:21:46.631Z,68.99
2022-09-04T15:24:50.977Z,70.20
2022-09-04T15:27:54.634Z,70.07
2022-09-04T15:31:15.611Z,69.93
2022-09-04T15:34:21.684Z,67.97
2022-09-04T15:37:25.358Z,67.33
2022-09-04T15:40:37.846Z,64.74
2022-09-04T15:43:43.302Z,59.33
2022-09-04T15:46:46.388Z,59.89
2022-09-04T15:49:49.790Z,56.56
2022-09-04T15:53:10.424Z,56.22
2022-09-04T15:56:21.642Z,61.19
2022-09-04T15:59:25.069Z,63.69
2022-09-04T16:02:46.444Z,64.50
2022-09-04T16:05:58.194Z,65.01
2022-09-04T16:09:08.297Z,64.78
2022-09-04T16:12:14.752Z,65.95
2022-09-04T16:15:29.181Z,65.54
2022-09-04T16:18:46.781Z,59.14
2022-09-04T16:21:48.413Z,59.35
2022-09-04T16:24:54.033Z,61.96
2022-09-04T16:28:03.895Z,63.95
2022-09-04T16:31:12.319Z,63.60
2022-09-04T16:34:19.637Z,59.76
2022-09-04T16:37:30.610Z,57.01
2022-09-04T16:40:33.552Z,55.04
2022-09-04T16:43:35.473Z,53.09
2022-09-04T16:46:37.527Z,56.73
2022-09-04T16:49:41.029Z,57.48
2022-09-04T16:52:49.679Z,58.03
2022-09-04T16:56:03.694Z,60.37
2022-09-04T16:59:08.710Z,62.98
2022-09-04T17:02:22.612Z,63.64
2022-09-04T17:05:34.805Z,59.85
2022-09-04T17:08:40.373Z,61.60
2022-09-04T17:11:44.233Z,64.41
2022-09-04T17:15:10.082Z,65.89
2022-09-04T17:18:11.685Z,67.07
2022-09-04T17:27:13.115Z,67.63
2022-09-04T17:29:08.631Z,69.04
2022-09-04T17:29:11.313Z,68.24
2022-09-04T17:31:57.706Z,69.61
2022-09-04T17:40:37.325Z,70.36
2022-09-04T17:40:41.465Z,69.67
2022-09-04T17:42:08.167Z,70.64
2022-09-04T17:45:25.197Z,71.09
2022-09-04T17:48:27.704Z,71.43
2022-09-04T17:51:32.000Z,71.05
2022-09-04T17:54:37.527Z,71.19
2022-09-04T17:57:57.899Z,70.93
2022-09-04T18:01:20.256Z,70.62
2022-09-04T18:04:37.589Z,70.41
2022-09-04T18:08:08.139Z,70.39
2022-09-04T18:11:12.460Z,71.72
2022-09-04T18:14:18.687Z,72.19
2022-09-04T18:17:21.703Z,72.23
2022-09-04T18:20:37.731Z,71.79
2022-09-04T18:23:48.774Z,71.29
2022-09-04T18:27:11.888Z,71.52
2022-09-04T18:37:05.500Z,72.24
2022-09-04T18:37:22.643Z,73.18
2022-09-04T18:37:24.544Z,72.58
2022-09-04T18:41:08.710Z,73.73
2022-09-04T18:50:26.026Z,74.23
2022-09-04T18:50:52.510Z,74.70
2022-09-04T18:54:19.580Z,74.93
2022-09-04T18:57:21.096Z,75.25
2022-09-04T19:00:23.872Z,75.61
2022-09-04T19:03:32.695Z,76.62
2022-09-04T19:06:35.418Z,77.27
2022-09-04T19:09:57.235Z,77.65
2022-09-04T19:13:17.789Z,77.75
2022-09-04T19:16:29.577Z,78.00
2022-09-04T19:19:32.582Z,77.82
2022-09-04T19:22:44.701Z,78.47
2022-09-04T19:25:54.753Z,78.56
2022-09-04T19:29:04.989Z,78.64
2022-09-04T19:32:08.236Z,78.92
2022-09-04T19:35:13.347Z,79.33
2022-09-04T19:45:57.207Z,79.47
2022-09-04T19:46:03.508Z,79.07
2022-09-04T19:46:14.679Z,79.93
2022-09-04T19:48:28.922Z,80.24
2022-09-04T19:53:31.987Z,80.43
2022-09-04T19:55:25.023Z,80.61
2022-09-04T19:58:28.273Z,80.75
2022-09-04T20:01:31.961Z,79.43
2022-09-04T20:04:33.706Z,80.00
2022-09-04T20:07:42.117Z,80.26
2022-09-04T20:10:58.718Z,80.94
2022-09-04T20:14:10.229Z,80.97
2022-09-04T20:17:29.150Z,81.17
2022-09-04T20:20:32.640Z,81.58
2022-09-04T20:23:40.105Z,81.07
2022-09-04T20:26:56.718Z,81.88
2022-09-04T20:30:01.680Z,83.54
2022-09-04T20:33:06.905Z,82.04
2022-09-04T20:36:09.027Z,81.83
2022-09-04T20:39:11.970Z,81.59
2022-09-04T20:42:18.216Z,81.47
2022-09-04T20:50:12.387Z,81.54
2022-09-04T20:52:50.486Z,82.08
2022-09-04T20:52:54.193Z,81.91
2022-09-04T20:55:46.223Z,82.32
2022-09-04T21:03:07.981Z,82.15
2022-09-04T21:03:20.725Z,82.07
2022-09-04T21:05:59.974Z,82.48
2022-09-04T21:09:22.451Z,81.98
2022-09-04T21:12:32.546Z,82.16
2022-09-04T21:15:49.020Z,82.39
2022-09-04T21:19:28.001Z,82.96
2022-09-04T21:22:34.019Z,83.00
2022-09-04T21:25:44.818Z,83.20
2022-09-04T21:28:47.534Z,83.64
2022-09-04T21:31:58.348Z,83.86
2022-09-04T21:35:20.634Z,83.37
2022-09-04T21:38:25.326Z,83.37
2022-09-04T21:41:27.499Z,83.03
2022-09-04T21:44:29.286Z,83.00
2022-09-04T21:47:44.724Z,83.18
2022-09-04T21:50:53.140Z,83.44
2022-09-04T21:53:57.901Z,83.24
2022-09-04T22:02:26.360Z,83.25
2022-09-04T22:02:36.187Z,82.99
2022-09-04T22:04:12.039Z,82.96
2022-09-04T22:11:15.379Z,83.88
2022-09-04T22:13:32.636Z,83.53
2022-09-04T22:14:38.247Z,83.29
2022-09-04T22:18:18.545Z,82.89
2022-09-04T22:21:46.451Z,82.49
2022-09-04T22:25:01.654Z,82.16
2022-09-04T22:28:12.488Z,82.55
2022-09-04T22:31:20.020Z,83.73
2022-09-04T22:34:27.544Z,82.24
2022-09-04T22:37:32.230Z,81.47
2022-09-04T22:40:56.234Z,82.11
2022-09-04T22:44:01.613Z,83.09
2022-09-04T22:47:27.907Z,83.48
2022-09-04T22:50:49.993Z,84.82
2022-09-04T22:54:01.492Z,84.66
2022-09-04T22:57:13.032Z,86.00
2022-09-04T23:00:18.566Z,84.94
2022-09-04T23:03:20.383Z,84.75
2022-09-04T23:08:01.259Z,84.54
2022-09-04T23:13:52.628Z,84.33
2022-09-04T23:13:59.883Z,84.03
2022-09-04T23:16:37.955Z,84.47
2022-09-04T23:25:31.049Z,84.82
2022-09-04T23:26:50.722Z,83.71
2022-09-04T23:27:00.997Z,83.36
2022-09-04T23:30:08.194Z,83.96
2022-09-04T23:33:28.074Z,83.14
2022-09-04T23:36:48.877Z,82.55
2022-09-04T23:40:10.238Z,81.33
2022-09-04T23:43:23.098Z,81.79
2022-09-04T23:46:43.820Z,81.35
2022-09-04T23:49:54.816Z,82.06
2022-09-04T23:53:12.225Z,82.32
2022-09-04T23:56:26.176Z,81.52
2022-09-04T23:59:38.602Z,81.64
